sensor_id;sensor_type;location;lat;lon;timestamp;P1;durP1;ratioP1;P2;durP2;ratioP2
35434;SDS011;21556;55.782;37.528;2022-11-20T00:00:54;15.20;;;9.53;;
35434;SDS011;21556;55.782;37.528;2022-11-20T00:03:20;13.90;;;9.43;;
35434;SDS011;21556;55.782;37.528;2022-11-20T00:05:46;13.40;;;8.77;;
35434;SDS011;21556;55.782;37.528;2022-11-20T00:08:12;12.77;;;8.67;;
35434;SDS011;21556;55.782;37.528;2022-11-20T00:10:40;12.33;;;8.37;;
35434;SDS011;21556;55.782;37.528;2022-11-20T00:13:06;13.23;;;8.73;;
35434;SDS011;21556;55.782;37.528;2022-11-20T00:15:33;13.37;;;8.37;;
35434;SDS011;21556;55.782;37.528;2022-11-20T00:17:59;12.47;;;8.67;;
35434;SDS011;21556;55.782;37.528;2022-11-20T00:20:25;13.20;;;9.63;;
35434;SDS011;21556;55.782;37.528;2022-11-20T00:22:51;13.20;;;9.10;;
35434;SDS011;21556;55.782;37.528;2022-11-20T00:25:16;6.47;;;4.50;;
35434;SDS011;21556;55.782;37.528;2022-11-20T00:27:42;12.63;;;9.23;;
35434;SDS011;21556;55.782;37.528;2022-11-20T00:30:08;12.70;;;8.87;;
35434;SDS011;21556;55.782;37.528;2022-11-20T00:32:34;15.20;;;9.83;;
35434;SDS011;21556;55.782;37.528;2022-11-20T00:35:00;15.57;;;9.73;;
35434;SDS011;21556;55.782;37.528;2022-11-20T00:37:26;13.83;;;8.50;;
35434;SDS011;21556;55.782;37.528;2022-11-20T00:39:51;12.03;;;8.30;;
35434;SDS011;21556;55.782;37.528;2022-11-20T00:42:17;10.60;;;6.57;;
35434;SDS011;21556;55.782;37.528;2022-11-20T00:44:43;11.63;;;6.93;;
35434;SDS011;21556;55.782;37.528;2022-11-20T00:47:09;11.37;;;7.80;;
35434;SDS011;21556;55.782;37.528;2022-11-20T00:49:34;12.00;;;7.83;;
35434;SDS011;21556;55.782;37.528;2022-11-20T00:52:00;12.93;;;8.27;;
35434;SDS011;21556;55.782;37.528;2022-11-20T00:54:26;12.43;;;8.43;;
35434;SDS011;21556;55.782;37.528;2022-11-20T00:56:54;12.77;;;8.30;;
35434;SDS011;21556;55.782;37.528;2022-11-20T01:01:46;12.10;;;7.97;;
35434;SDS011;21556;55.782;37.528;2022-11-20T01:04:11;13.73;;;9.07;;
35434;SDS011;21556;55.782;37.528;2022-11-20T01:06:38;12.37;;;8.07;;
35434;SDS011;21556;55.782;37.528;2022-11-20T01:09:05;10.73;;;7.70;;
35434;SDS011;21556;55.782;37.528;2022-11-20T01:11:36;10.57;;;7.50;;
35434;SDS011;21556;55.782;37.528;2022-11-20T01:14:04;11.97;;;8.23;;
35434;SDS011;21556;55.782;37.528;2022-11-20T01:18:59;13.00;;;7.63;;
35434;SDS011;21556;55.782;37.528;2022-11-20T01:21:28;10.60;;;7.13;;
35434;SDS011;21556;55.782;37.528;2022-11-20T01:23:58;10.40;;;7.63;;
35434;SDS011;21556;55.782;37.528;2022-11-20T01:26:26;11.83;;;8.03;;
35434;SDS011;21556;55.782;37.528;2022-11-20T01:31:20;10.20;;;7.53;;
35434;SDS011;21556;55.782;37.528;2022-11-20T01:36:15;11.33;;;7.27;;
35434;SDS011;21556;55.782;37.528;2022-11-20T01:38:42;11.27;;;7.23;;
35434;SDS011;21556;55.782;37.528;2022-11-20T01:41:08;9.70;;;6.47;;
35434;SDS011;21556;55.782;37.528;2022-11-20T01:43:54;7.68;;;6.35;;
35434;SDS011;21556;55.782;37.528;2022-11-20T01:46:20;11.37;;;7.60;;
35434;SDS011;21556;55.782;37.528;2022-11-20T01:51:35;9.63;;;6.60;;
35434;SDS011;21556;55.782;37.528;2022-11-20T01:54:15;12.83;;;7.07;;
35434;SDS011;21556;55.782;37.528;2022-11-20T01:56:46;9.00;;;6.63;;
35434;SDS011;21556;55.782;37.528;2022-11-20T01:59:17;12.20;;;8.07;;
35434;SDS011;21556;55.782;37.528;2022-11-20T02:01:44;8.07;;;5.27;;
35434;SDS011;21556;55.782;37.528;2022-11-20T02:04:10;10.10;;;7.13;;
35434;SDS011;21556;55.782;37.528;2022-11-20T02:09:07;9.17;;;6.37;;
35434;SDS011;21556;55.782;37.528;2022-11-20T02:11:33;8.47;;;6.57;;
35434;SDS011;21556;55.782;37.528;2022-11-20T02:13:59;11.77;;;7.67;;
35434;SDS011;21556;55.782;37.528;2022-11-20T02:16:27;11.03;;;6.87;;
35434;SDS011;21556;55.782;37.528;2022-11-20T02:18:56;11.20;;;6.80;;
35434;SDS011;21556;55.782;37.528;2022-11-20T02:26:57;10.53;;;6.70;;
35434;SDS011;21556;55.782;37.528;2022-11-20T02:29:31;10.37;;;6.73;;
35434;SDS011;21556;55.782;37.528;2022-11-20T02:32:01;8.53;;;5.77;;
35434;SDS011;21556;55.782;37.528;2022-11-20T02:34:28;8.13;;;5.70;;
35434;SDS011;21556;55.782;37.528;2022-11-20T02:36:54;10.53;;;6.77;;
35434;SDS011;21556;55.782;37.528;2022-11-20T02:39:21;7.93;;;6.28;;
35434;SDS011;21556;55.782;37.528;2022-11-20T02:41:50;12.77;;;7.70;;
35434;SDS011;21556;55.782;37.528;2022-11-20T02:44:18;10.10;;;6.67;;
35434;SDS011;21556;55.782;37.528;2022-11-20T02:46:45;9.17;;;6.30;;
35434;SDS011;21556;55.782;37.528;2022-11-20T02:49:11;11.17;;;6.73;;
35434;SDS011;21556;55.782;37.528;2022-11-20T02:51:37;9.87;;;6.33;;
35434;SDS011;21556;55.782;37.528;2022-11-20T02:54:02;9.40;;;6.03;;
35434;SDS011;21556;55.782;37.528;2022-11-20T02:56:29;8.50;;;5.60;;
35434;SDS011;21556;55.782;37.528;2022-11-20T02:58:55;10.60;;;6.50;;
35434;SDS011;21556;55.782;37.528;2022-11-20T03:01:22;11.17;;;6.43;;
35434;SDS011;21556;55.782;37.528;2022-11-20T03:03:49;5.80;;;3.90;;
35434;SDS011;21556;55.782;37.528;2022-11-20T03:06:18;9.23;;;6.27;;
35434;SDS011;21556;55.782;37.528;2022-11-20T03:08:43;10.50;;;6.27;;
35434;SDS011;21556;55.782;37.528;2022-11-20T03:11:09;9.13;;;6.27;;
35434;SDS011;21556;55.782;37.528;2022-11-20T03:13:35;9.40;;;6.03;;
35434;SDS011;21556;55.782;37.528;2022-11-20T03:16:12;10.47;;;7.33;;
35434;SDS011;21556;55.782;37.528;2022-11-20T03:18:39;9.23;;;6.30;;
35434;SDS011;21556;55.782;37.528;2022-11-20T03:21:06;10.13;;;6.20;;
35434;SDS011;21556;55.782;37.528;2022-11-20T03:23:33;9.40;;;7.13;;
35434;SDS011;21556;55.782;37.528;2022-11-20T03:26:15;7.63;;;5.60;;
35434;SDS011;21556;55.782;37.528;2022-11-20T03:28:48;8.87;;;6.10;;
35434;SDS011;21556;55.782;37.528;2022-11-20T03:31:16;9.90;;;6.60;;
35434;SDS011;21556;55.782;37.528;2022-11-20T03:33:43;9.35;;;6.03;;
35434;SDS011;21556;55.782;37.528;2022-11-20T03:36:10;8.97;;;6.10;;
35434;SDS011;21556;55.782;37.528;2022-11-20T03:38:37;10.93;;;6.50;;
35434;SDS011;21556;55.782;37.528;2022-11-20T03:41:05;9.87;;;6.27;;
35434;SDS011;21556;55.782;37.528;2022-11-20T03:43:35;10.03;;;5.87;;
35434;SDS011;21556;55.782;37.528;2022-11-20T03:46:02;10.27;;;6.73;;
35434;SDS011;21556;55.782;37.528;2022-11-20T03:48:28;9.90;;;6.57;;
35434;SDS011;21556;55.782;37.528;2022-11-20T03:53:58;7.97;;;5.40;;
35434;SDS011;21556;55.782;37.528;2022-11-20T03:56:27;10.40;;;7.20;;
35434;SDS011;21556;55.782;37.528;2022-11-20T03:58:55;8.37;;;6.50;;
35434;SDS011;21556;55.782;37.528;2022-11-20T04:01:22;10.57;;;6.87;;
35434;SDS011;21556;55.782;37.528;2022-11-20T04:03:51;10.60;;;6.47;;
35434;SDS011;21556;55.782;37.528;2022-11-20T04:06:21;9.30;;;6.80;;
35434;SDS011;21556;55.782;37.528;2022-11-20T04:08:48;11.40;;;7.03;;
35434;SDS011;21556;55.782;37.528;2022-11-20T04:11:16;11.37;;;6.83;;
35434;SDS011;21556;55.782;37.528;2022-11-20T04:13:47;12.10;;;7.03;;
35434;SDS011;21556;55.782;37.528;2022-11-20T04:16:17;10.73;;;6.50;;
35434;SDS011;21556;55.782;37.528;2022-11-20T04:18:43;9.90;;;6.13;;
35434;SDS011;21556;55.782;37.528;2022-11-20T04:21:12;11.67;;;6.67;;
35434;SDS011;21556;55.782;37.528;2022-11-20T04:23:38;10.10;;;6.50;;
35434;SDS011;21556;55.782;37.528;2022-11-20T04:26:05;10.93;;;6.87;;
35434;SDS011;21556;55.782;37.528;2022-11-20T04:28:33;9.37;;;5.97;;
35434;SDS011;21556;55.782;37.528;2022-11-20T04:31:03;10.17;;;7.00;;
35434;SDS011;21556;55.782;37.528;2022-11-20T04:33:35;12.90;;;7.00;;
35434;SDS011;21556;55.782;37.528;2022-11-20T04:36:02;11.67;;;7.30;;
35434;SDS011;21556;55.782;37.528;2022-11-20T04:38:30;14.57;;;7.60;;
35434;SDS011;21556;55.782;37.528;2022-11-20T04:41:00;10.10;;;6.47;;
35434;SDS011;21556;55.782;37.528;2022-11-20T04:43:28;11.30;;;7.50;;
35434;SDS011;21556;55.782;37.528;2022-11-20T04:45:55;11.33;;;7.57;;
35434;SDS011;21556;55.782;37.528;2022-11-20T04:48:22;11.67;;;7.77;;
35434;SDS011;21556;55.782;37.528;2022-11-20T04:50:48;13.27;;;7.40;;
35434;SDS011;21556;55.782;37.528;2022-11-20T04:53:14;13.20;;;7.20;;
35434;SDS011;21556;55.782;37.528;2022-11-20T04:55:40;10.40;;;7.63;;
35434;SDS011;21556;55.782;37.528;2022-11-20T04:58:05;13.17;;;7.60;;
35434;SDS011;21556;55.782;37.528;2022-11-20T05:00:34;13.63;;;8.15;;
35434;SDS011;21556;55.782;37.528;2022-11-20T05:02:59;9.27;;;6.87;;
35434;SDS011;21556;55.782;37.528;2022-11-20T05:05:25;13.23;;;7.80;;
35434;SDS011;21556;55.782;37.528;2022-11-20T05:07:51;13.23;;;7.17;;
35434;SDS011;21556;55.782;37.528;2022-11-20T05:10:17;13.23;;;9.53;;
35434;SDS011;21556;55.782;37.528;2022-11-20T05:12:43;11.90;;;7.70;;
35434;SDS011;21556;55.782;37.528;2022-11-20T05:15:08;17.77;;;8.23;;
35434;SDS011;21556;55.782;37.528;2022-11-20T05:17:34;10.10;;;7.03;;
35434;SDS011;21556;55.782;37.528;2022-11-20T05:20:00;12.33;;;8.10;;
35434;SDS011;21556;55.782;37.528;2022-11-20T05:22:28;8.20;;;6.45;;
35434;SDS011;21556;55.782;37.528;2022-11-20T05:24:54;12.20;;;7.77;;
35434;SDS011;21556;55.782;37.528;2022-11-20T05:27:19;14.77;;;8.37;;
35434;SDS011;21556;55.782;37.528;2022-11-20T05:29:45;17.03;;;9.23;;
35434;SDS011;21556;55.782;37.528;2022-11-20T05:32:11;12.47;;;7.90;;
35434;SDS011;21556;55.782;37.528;2022-11-20T05:34:37;12.83;;;8.13;;
35434;SDS011;21556;55.782;37.528;2022-11-20T05:37:02;12.50;;;7.43;;
35434;SDS011;21556;55.782;37.528;2022-11-20T05:39:28;12.10;;;7.77;;
35434;SDS011;21556;55.782;37.528;2022-11-20T05:41:54;13.10;;;7.90;;
35434;SDS011;21556;55.782;37.528;2022-11-20T05:44:38;14.93;;;7.73;;
35434;SDS011;21556;55.782;37.528;2022-11-20T05:47:04;14.27;;;9.17;;
35434;SDS011;21556;55.782;37.528;2022-11-20T05:49:30;13.90;;;8.30;;
35434;SDS011;21556;55.782;37.528;2022-11-20T05:51:56;10.13;;;5.63;;
35434;SDS011;21556;55.782;37.528;2022-11-20T05:54:21;11.57;;;7.00;;
35434;SDS011;21556;55.782;37.528;2022-11-20T05:56:47;12.43;;;7.90;;
35434;SDS011;21556;55.782;37.528;2022-11-20T05:59:13;10.93;;;8.00;;
35434;SDS011;21556;55.782;37.528;2022-11-20T06:01:38;13.17;;;7.57;;
35434;SDS011;21556;55.782;37.528;2022-11-20T06:04:04;10.70;;;7.00;;
35434;SDS011;21556;55.782;37.528;2022-11-20T06:06:30;14.83;;;8.10;;
35434;SDS011;21556;55.782;37.528;2022-11-20T06:08:56;11.73;;;7.37;;
35434;SDS011;21556;55.782;37.528;2022-11-20T06:11:24;14.40;;;8.65;;
35434;SDS011;21556;55.782;37.528;2022-11-20T06:13:50;12.50;;;7.63;;
35434;SDS011;21556;55.782;37.528;2022-11-20T06:16:17;11.10;;;7.33;;
35434;SDS011;21556;55.782;37.528;2022-11-20T06:18:44;12.40;;;7.90;;
35434;SDS011;21556;55.782;37.528;2022-11-20T06:21:14;16.40;;;8.37;;
35434;SDS011;21556;55.782;37.528;2022-11-20T06:23:42;8.13;;;6.38;;
35434;SDS011;21556;55.782;37.528;2022-11-20T06:26:11;12.50;;;8.30;;
35434;SDS011;21556;55.782;37.528;2022-11-20T06:28:39;12.63;;;8.53;;
35434;SDS011;21556;55.782;37.528;2022-11-20T06:31:05;12.10;;;8.50;;
35434;SDS011;21556;55.782;37.528;2022-11-20T06:33:35;11.93;;;8.40;;
35434;SDS011;21556;55.782;37.528;2022-11-20T06:36:01;15.10;;;8.50;;
35434;SDS011;21556;55.782;37.528;2022-11-20T06:38:27;12.30;;;8.50;;
35434;SDS011;21556;55.782;37.528;2022-11-20T06:40:53;14.10;;;9.27;;
35434;SDS011;21556;55.782;37.528;2022-11-20T06:43:20;14.50;;;8.80;;
35434;SDS011;21556;55.782;37.528;2022-11-20T06:45:46;13.57;;;8.80;;
35434;SDS011;21556;55.782;37.528;2022-11-20T06:48:16;13.10;;;8.20;;
35434;SDS011;21556;55.782;37.528;2022-11-20T06:50:42;12.17;;;8.70;;
35434;SDS011;21556;55.782;37.528;2022-11-20T06:53:08;14.97;;;10.30;;
35434;SDS011;21556;55.782;37.528;2022-11-20T06:55:33;14.57;;;8.97;;
35434;SDS011;21556;55.782;37.528;2022-11-20T06:57:59;14.30;;;8.83;;
35434;SDS011;21556;55.782;37.528;2022-11-20T07:00:25;13.77;;;9.50;;
35434;SDS011;21556;55.782;37.528;2022-11-20T07:02:51;15.00;;;8.93;;
35434;SDS011;21556;55.782;37.528;2022-11-20T07:05:17;14.37;;;9.70;;
35434;SDS011;21556;55.782;37.528;2022-11-20T07:07:45;13.23;;;9.23;;
35434;SDS011;21556;55.782;37.528;2022-11-20T07:10:10;15.57;;;8.67;;
35434;SDS011;21556;55.782;37.528;2022-11-20T07:12:51;13.97;;;8.33;;
35434;SDS011;21556;55.782;37.528;2022-11-20T07:28:23;14.93;;;9.03;;
35434;SDS011;21556;55.782;37.528;2022-11-20T07:34:21;14.00;;;9.80;;
35434;SDS011;21556;55.782;37.528;2022-11-20T07:45:55;15.87;;;10.03;;
35434;SDS011;21556;55.782;37.528;2022-11-20T07:57:58;15.83;;;9.63;;
35434;SDS011;21556;55.782;37.528;2022-11-20T08:09:20;16.07;;;10.70;;
35434;SDS011;21556;55.782;37.528;2022-11-20T08:21:03;23.20;;;12.57;;
35434;SDS011;21556;55.782;37.528;2022-11-20T08:23:31;26.20;;;13.30;;
35434;SDS011;21556;55.782;37.528;2022-11-20T08:25:57;19.10;;;11.77;;
35434;SDS011;21556;55.782;37.528;2022-11-20T08:28:23;20.87;;;12.67;;
35434;SDS011;21556;55.782;37.528;2022-11-20T08:30:49;19.90;;;11.83;;
35434;SDS011;21556;55.782;37.528;2022-11-20T08:33:15;25.07;;;13.27;;
35434;SDS011;21556;55.782;37.528;2022-11-20T08:35:42;22.77;;;12.73;;
35434;SDS011;21556;55.782;37.528;2022-11-20T08:38:08;21.00;;;13.43;;
35434;SDS011;21556;55.782;37.528;2022-11-20T08:40:34;19.07;;;12.43;;
35434;SDS011;21556;55.782;37.528;2022-11-20T08:43:00;24.57;;;13.43;;
35434;SDS011;21556;55.782;37.528;2022-11-20T08:45:26;24.83;;;12.57;;
35434;SDS011;21556;55.782;37.528;2022-11-20T08:47:52;21.70;;;12.43;;
35434;SDS011;21556;55.782;37.528;2022-11-20T08:50:18;22.40;;;12.83;;
35434;SDS011;21556;55.782;37.528;2022-11-20T08:52:44;21.27;;;11.83;;
35434;SDS011;21556;55.782;37.528;2022-11-20T08:55:10;24.20;;;13.40;;
35434;SDS011;21556;55.782;37.528;2022-11-20T08:57:37;23.40;;;13.30;;
35434;SDS011;21556;55.782;37.528;2022-11-20T09:00:04;24.50;;;14.33;;
35434;SDS011;21556;55.782;37.528;2022-11-20T09:02:32;21.50;;;12.88;;
35434;SDS011;21556;55.782;37.528;2022-11-20T09:04:58;25.27;;;14.23;;
35434;SDS011;21556;55.782;37.528;2022-11-20T09:07:24;25.47;;;14.40;;
35434;SDS011;21556;55.782;37.528;2022-11-20T09:09:49;24.37;;;14.87;;
35434;SDS011;21556;55.782;37.528;2022-11-20T09:12:15;25.93;;;15.30;;
35434;SDS011;21556;55.782;37.528;2022-11-20T09:14:42;28.53;;;15.17;;
35434;SDS011;21556;55.782;37.528;2022-11-20T09:17:09;25.67;;;14.63;;
35434;SDS011;21556;55.782;37.528;2022-11-20T09:19:38;28.67;;;15.83;;
35434;SDS011;21556;55.782;37.528;2022-11-20T09:22:05;27.83;;;15.00;;
35434;SDS011;21556;55.782;37.528;2022-11-20T09:24:31;24.57;;;15.83;;
35434;SDS011;21556;55.782;37.528;2022-11-20T09:26:56;27.53;;;16.67;;
35434;SDS011;21556;55.782;37.528;2022-11-20T09:29:22;30.93;;;16.53;;
35434;SDS011;21556;55.782;37.528;2022-11-20T09:31:48;28.67;;;15.50;;
35434;SDS011;21556;55.782;37.528;2022-11-20T09:34:14;30.40;;;15.77;;
35434;SDS011;21556;55.782;37.528;2022-11-20T09:36:39;28.03;;;14.83;;
35434;SDS011;21556;55.782;37.528;2022-11-20T09:39:06;31.80;;;16.50;;
35434;SDS011;21556;55.782;37.528;2022-11-20T09:47:24;31.70;;;16.20;;
35434;SDS011;21556;55.782;37.528;2022-11-20T09:55:34;25.23;;;15.87;;
35434;SDS011;21556;55.782;37.528;2022-11-20T09:58:01;21.90;;;12.60;;
35434;SDS011;21556;55.782;37.528;2022-11-20T10:00:32;29.23;;;15.80;;
35434;SDS011;21556;55.782;37.528;2022-11-20T10:09:40;31.58;;;15.70;;
35434;SDS011;21556;55.782;37.528;2022-11-20T10:31:02;27.40;;;15.33;;
35434;SDS011;21556;55.782;37.528;2022-11-20T10:33:35;25.40;;;14.73;;
35434;SDS011;21556;55.782;37.528;2022-11-20T10:37:26;26.40;;;14.87;;
35434;SDS011;21556;55.782;37.528;2022-11-20T10:49:51;21.90;;;13.20;;
35434;SDS011;21556;55.782;37.528;2022-11-20T10:52:22;22.73;;;13.27;;
35434;SDS011;21556;55.782;37.528;2022-11-20T10:55:54;25.97;;;13.00;;
35434;SDS011;21556;55.782;37.528;2022-11-20T11:01:11;24.50;;;13.50;;
35434;SDS011;21556;55.782;37.528;2022-11-20T11:03:40;22.67;;;12.63;;
35434;SDS011;21556;55.782;37.528;2022-11-20T11:06:12;23.20;;;13.57;;
35434;SDS011;21556;55.782;37.528;2022-11-20T11:08:47;20.90;;;11.50;;
35434;SDS011;21556;55.782;37.528;2022-11-20T11:13:49;19.13;;;11.83;;
35434;SDS011;21556;55.782;37.528;2022-11-20T11:16:22;17.83;;;10.60;;
35434;SDS011;21556;55.782;37.528;2022-11-20T11:41:32;15.60;;;9.07;;
35434;SDS011;21556;55.782;37.528;2022-11-20T11:44:19;15.83;;;9.37;;
35434;SDS011;21556;55.782;37.528;2022-11-20T12:28:11;13.50;;;8.70;;
35434;SDS011;21556;55.782;37.528;2022-11-20T13:29:33;16.27;;;11.10;;
35434;SDS011;21556;55.782;37.528;2022-11-20T13:36:35;16.10;;;10.27;;
35434;SDS011;21556;55.782;37.528;2022-11-20T14:48:23;17.00;;;10.23;;
35434;SDS011;21556;55.782;37.528;2022-11-20T14:51:02;19.27;;;11.40;;
35434;SDS011;21556;55.782;37.528;2022-11-20T14:53:28;16.43;;;10.20;;
35434;SDS011;21556;55.782;37.528;2022-11-20T14:55:54;15.97;;;10.30;;
35434;SDS011;21556;55.782;37.528;2022-11-20T14:58:24;16.40;;;10.40;;
35434;SDS011;21556;55.782;37.528;2022-11-20T15:03:20;15.90;;;10.93;;
35434;SDS011;21556;55.782;37.528;2022-11-20T15:05:48;14.37;;;9.87;;
35434;SDS011;21556;55.782;37.528;2022-11-20T15:08:16;14.80;;;10.63;;
35434;SDS011;21556;55.782;37.528;2022-11-20T15:10:47;13.50;;;9.80;;
35434;SDS011;21556;55.782;37.528;2022-11-20T15:13:24;15.00;;;10.20;;
35434;SDS011;21556;55.782;37.528;2022-11-20T15:16:02;15.03;;;9.87;;
35434;SDS011;21556;55.782;37.528;2022-11-20T15:18:32;15.27;;;10.47;;
35434;SDS011;21556;55.782;37.528;2022-11-20T15:21:20;16.67;;;10.13;;
35434;SDS011;21556;55.782;37.528;2022-11-20T15:23:54;17.13;;;10.67;;
35434;SDS011;21556;55.782;37.528;2022-11-20T15:26:22;15.47;;;10.53;;
35434;SDS011;21556;55.782;37.528;2022-11-20T15:28:51;15.03;;;10.27;;
35434;SDS011;21556;55.782;37.528;2022-11-20T15:31:19;15.17;;;10.17;;
35434;SDS011;21556;55.782;37.528;2022-11-20T15:33:48;14.83;;;9.50;;
35434;SDS011;21556;55.782;37.528;2022-11-20T15:36:24;16.53;;;11.07;;
35434;SDS011;21556;55.782;37.528;2022-11-20T15:38:49;15.10;;;10.10;;
35434;SDS011;21556;55.782;37.528;2022-11-20T15:41:16;16.30;;;10.73;;
35434;SDS011;21556;55.782;37.528;2022-11-20T15:43:41;16.67;;;10.40;;
35434;SDS011;21556;55.782;37.528;2022-11-20T15:46:14;13.60;;;9.73;;
35434;SDS011;21556;55.782;37.528;2022-11-20T15:48:43;19.43;;;9.67;;
35434;SDS011;21556;55.782;37.528;2022-11-20T15:54:13;18.23;;;12.13;;
35434;SDS011;21556;55.782;37.528;2022-11-20T15:56:42;17.03;;;10.37;;
35434;SDS011;21556;55.782;37.528;2022-11-20T15:59:08;17.70;;;10.63;;
35434;SDS011;21556;55.782;37.528;2022-11-20T16:01:34;13.70;;;9.77;;
35434;SDS011;21556;55.782;37.528;2022-11-20T16:04:04;18.10;;;10.67;;
35434;SDS011;21556;55.782;37.528;2022-11-20T16:06:31;15.80;;;11.35;;
35434;SDS011;21556;55.782;37.528;2022-11-20T16:08:56;16.37;;;10.63;;
35434;SDS011;21556;55.782;37.528;2022-11-20T16:11:22;19.70;;;11.13;;
35434;SDS011;21556;55.782;37.528;2022-11-20T16:13:48;17.83;;;11.30;;
35434;SDS011;21556;55.782;37.528;2022-11-20T16:16:35;17.07;;;11.37;;
35434;SDS011;21556;55.782;37.528;2022-11-20T16:19:05;16.83;;;10.83;;
35434;SDS011;21556;55.782;37.528;2022-11-20T16:21:31;17.77;;;11.97;;
35434;SDS011;21556;55.782;37.528;2022-11-20T16:23:58;16.30;;;10.63;;
35434;SDS011;21556;55.782;37.528;2022-11-20T16:26:25;20.67;;;12.20;;
35434;SDS011;21556;55.782;37.528;2022-11-20T16:28:51;16.80;;;10.70;;
35434;SDS011;21556;55.782;37.528;2022-11-20T16:31:18;19.43;;;11.63;;
35434;SDS011;21556;55.782;37.528;2022-11-20T16:33:52;23.33;;;11.35;;
35434;SDS011;21556;55.782;37.528;2022-11-20T16:36:21;18.37;;;10.33;;
35434;SDS011;21556;55.782;37.528;2022-11-20T16:38:52;17.90;;;10.52;;
35434;SDS011;21556;55.782;37.528;2022-11-20T16:41:19;15.97;;;11.10;;
35434;SDS011;21556;55.782;37.528;2022-11-20T16:43:45;19.37;;;11.33;;
35434;SDS011;21556;55.782;37.528;2022-11-20T16:46:14;21.87;;;11.17;;
35434;SDS011;21556;55.782;37.528;2022-11-20T16:48:42;15.10;;;10.18;;
35434;SDS011;21556;55.782;37.528;2022-11-20T16:51:08;17.23;;;11.23;;
35434;SDS011;21556;55.782;37.528;2022-11-20T16:53:36;17.08;;;11.07;;
35434;SDS011;21556;55.782;37.528;2022-11-20T16:56:11;17.57;;;10.83;;
35434;SDS011;21556;55.782;37.528;2022-11-20T16:58:38;16.60;;;10.27;;
35434;SDS011;21556;55.782;37.528;2022-11-20T17:01:05;18.63;;;10.97;;
35434;SDS011;21556;55.782;37.528;2022-11-20T17:03:38;16.20;;;10.93;;
35434;SDS011;21556;55.782;37.528;2022-11-20T17:06:10;17.57;;;10.27;;
35434;SDS011;21556;55.782;37.528;2022-11-20T17:08:41;17.37;;;9.97;;
35434;SDS011;21556;55.782;37.528;2022-11-20T17:11:08;15.90;;;10.03;;
35434;SDS011;21556;55.782;37.528;2022-11-20T17:13:36;16.70;;;10.73;;
35434;SDS011;21556;55.782;37.528;2022-11-20T17:16:03;18.93;;;10.67;;
35434;SDS011;21556;55.782;37.528;2022-11-20T17:18:33;18.07;;;10.97;;
35434;SDS011;21556;55.782;37.528;2022-11-20T17:20:59;18.37;;;11.00;;
35434;SDS011;21556;55.782;37.528;2022-11-20T17:23:30;18.07;;;11.03;;
35434;SDS011;21556;55.782;37.528;2022-11-20T17:26:04;16.40;;;10.52;;
35434;SDS011;21556;55.782;37.528;2022-11-20T17:28:32;15.77;;;10.47;;
35434;SDS011;21556;55.782;37.528;2022-11-20T17:30:59;15.00;;;11.20;;
35434;SDS011;21556;55.782;37.528;2022-11-20T17:36:03;18.03;;;10.03;;
35434;SDS011;21556;55.782;37.528;2022-11-20T17:38:33;17.63;;;9.97;;
35434;SDS011;21556;55.782;37.528;2022-11-20T17:41:03;15.70;;;10.87;;
35434;SDS011;21556;55.782;37.528;2022-11-20T17:43:39;15.40;;;9.60;;
35434;SDS011;21556;55.782;37.528;2022-11-20T17:46:09;16.00;;;10.17;;
35434;SDS011;21556;55.782;37.528;2022-11-20T17:51:04;14.50;;;10.10;;
35434;SDS011;21556;55.782;37.528;2022-11-20T17:53:40;17.43;;;11.30;;
35434;SDS011;21556;55.782;37.528;2022-11-20T17:58:52;17.50;;;10.27;;
35434;SDS011;21556;55.782;37.528;2022-11-20T18:01:18;15.23;;;9.90;;
35434;SDS011;21556;55.782;37.528;2022-11-20T18:03:44;14.20;;;10.17;;
35434;SDS011;21556;55.782;37.528;2022-11-20T18:06:11;14.27;;;10.70;;
35434;SDS011;21556;55.782;37.528;2022-11-20T18:08:41;14.60;;;10.73;;
35434;SDS011;21556;55.782;37.528;2022-11-20T18:13:42;17.13;;;11.30;;
35434;SDS011;21556;55.782;37.528;2022-11-20T18:16:29;19.13;;;10.93;;
35434;SDS011;21556;55.782;37.528;2022-11-20T18:19:01;17.13;;;10.60;;
35434;SDS011;21556;55.782;37.528;2022-11-20T18:21:28;14.73;;;10.13;;
35434;SDS011;21556;55.782;37.528;2022-11-20T18:24:00;14.20;;;10.53;;
35434;SDS011;21556;55.782;37.528;2022-11-20T18:26:26;14.73;;;10.57;;
35434;SDS011;21556;55.782;37.528;2022-11-20T18:28:52;17.47;;;10.60;;
35434;SDS011;21556;55.782;37.528;2022-11-20T18:31:18;13.43;;;9.90;;
35434;SDS011;21556;55.782;37.528;2022-11-20T18:33:44;15.67;;;10.43;;
35434;SDS011;21556;55.782;37.528;2022-11-20T18:36:11;15.60;;;10.87;;
35434;SDS011;21556;55.782;37.528;2022-11-20T18:38:39;14.57;;;9.70;;
35434;SDS011;21556;55.782;37.528;2022-11-20T18:41:11;13.37;;;9.87;;
35434;SDS011;21556;55.782;37.528;2022-11-20T18:43:57;14.47;;;9.40;;
35434;SDS011;21556;55.782;37.528;2022-11-20T18:46:44;15.63;;;9.50;;
35434;SDS011;21556;55.782;37.528;2022-11-20T18:49:20;14.43;;;9.33;;
35434;SDS011;21556;55.782;37.528;2022-11-20T18:51:50;11.90;;;7.87;;
35434;SDS011;21556;55.782;37.528;2022-11-20T18:54:17;12.27;;;8.30;;
35434;SDS011;21556;55.782;37.528;2022-11-20T18:56:49;11.43;;;8.13;;
35434;SDS011;21556;55.782;37.528;2022-11-20T18:59:16;12.87;;;8.40;;
35434;SDS011;21556;55.782;37.528;2022-11-20T19:04:10;11.90;;;7.63;;
35434;SDS011;21556;55.782;37.528;2022-11-20T19:06:38;9.27;;;6.45;;
35434;SDS011;21556;55.782;37.528;2022-11-20T19:09:11;14.33;;;8.43;;
35434;SDS011;21556;55.782;37.528;2022-11-20T19:11:38;12.23;;;8.70;;
35434;SDS011;21556;55.782;37.528;2022-11-20T19:14:11;9.70;;;7.27;;
35434;SDS011;21556;55.782;37.528;2022-11-20T19:16:41;14.37;;;8.03;;
35434;SDS011;21556;55.782;37.528;2022-11-20T19:19:13;11.20;;;7.27;;
35434;SDS011;21556;55.782;37.528;2022-11-20T19:21:39;9.80;;;7.37;;
35434;SDS011;21556;55.782;37.528;2022-11-20T19:24:08;10.90;;;7.77;;
35434;SDS011;21556;55.782;37.528;2022-11-20T19:26:35;9.47;;;6.47;;
35434;SDS011;21556;55.782;37.528;2022-11-20T19:29:02;11.20;;;7.70;;
35434;SDS011;21556;55.782;37.528;2022-11-20T19:31:30;9.90;;;6.72;;
35434;SDS011;21556;55.782;37.528;2022-11-20T19:33:59;11.67;;;8.00;;
35434;SDS011;21556;55.782;37.528;2022-11-20T19:36:44;10.37;;;7.13;;
35434;SDS011;21556;55.782;37.528;2022-11-20T19:39:12;11.40;;;7.83;;
35434;SDS011;21556;55.782;37.528;2022-11-20T19:41:39;11.70;;;5.68;;
35434;SDS011;21556;55.782;37.528;2022-11-20T19:44:13;12.07;;;8.37;;
35434;SDS011;21556;55.782;37.528;2022-11-20T19:46:41;14.13;;;8.40;;
35434;SDS011;21556;55.782;37.528;2022-11-20T19:49:10;13.93;;;9.13;;
35434;SDS011;21556;55.782;37.528;2022-11-20T19:51:38;13.70;;;8.65;;
35434;SDS011;21556;55.782;37.528;2022-11-20T19:54:18;13.77;;;8.70;;
35434;SDS011;21556;55.782;37.528;2022-11-20T19:56:44;12.60;;;9.07;;
35434;SDS011;21556;55.782;37.528;2022-11-20T19:59:16;14.80;;;9.57;;
35434;SDS011;21556;55.782;37.528;2022-11-20T20:01:41;16.53;;;10.00;;
35434;SDS011;21556;55.782;37.528;2022-11-20T20:04:07;16.43;;;11.10;;
35434;SDS011;21556;55.782;37.528;2022-11-20T20:06:34;18.30;;;11.43;;
35434;SDS011;21556;55.782;37.528;2022-11-20T20:09:04;20.23;;;10.90;;
35434;SDS011;21556;55.782;37.528;2022-11-20T20:11:31;26.27;;;12.67;;